createdAt,value
2018-12-27T00:02:16.779Z,94.40
2018-12-27T00:04:57.519Z,94.30
2018-12-27T00:07:37.847Z,94.00
2018-12-27T00:10:18.737Z,94.30
2018-12-27T00:12:59.549Z,94.10
2018-12-27T00:15:40.581Z,94.20
2018-12-27T00:18:21.214Z,94.20
2018-12-27T00:21:02.217Z,94.20
2018-12-27T00:23:42.899Z,94.30
2018-12-27T00:26:23.211Z,94.80
2018-12-27T00:29:03.949Z,94.80
2018-12-27T00:31:44.749Z,94.80
2018-12-27T00:34:25.280Z,94.60
2018-12-27T00:37:05.859Z,94.30
2018-12-27T00:39:46.946Z,94.60
2018-12-27T00:42:28.233Z,94.80
2018-12-27T00:45:09.384Z,94.90
2018-12-27T00:47:49.905Z,94.80
2018-12-27T00:50:30.464Z,94.90
2018-12-27T00:53:11.115Z,94.90
2018-12-27T00:55:51.843Z,94.90
2018-12-27T00:58:32.937Z,94.90
2018-12-27T01:01:13.663Z,94.90
2018-12-27T01:03:54.459Z,95.00
2018-12-27T01:06:35.033Z,94.90
2018-12-27T01:09:15.650Z,95.10
2018-12-27T01:11:56.453Z,95.10
2018-12-27T01:14:36.924Z,95.20
2018-12-27T01:17:17.490Z,95.30
2018-12-27T01:19:58.454Z,95.60
2018-12-27T01:22:39.086Z,95.30
2018-12-27T01:25:20.104Z,95.40
2018-12-27T01:28:00.912Z,95.30
2018-12-27T01:30:41.412Z,95.70
2018-12-27T01:33:22.537Z,95.70
2018-12-27T01:36:03.133Z,96.60
2018-12-27T01:38:44.081Z,96.60
2018-12-27T01:41:24.818Z,97.30
2018-12-27T01:44:05.359Z,97.10
2018-12-27T01:46:45.910Z,96.60
2018-12-27T01:49:26.961Z,96.70
2018-12-27T01:52:07.653Z,96.70
2018-12-27T01:54:36.244Z,96.70
2018-12-27T01:57:16.925Z,96.70
2018-12-27T01:59:57.577Z,96.10
2018-12-27T02:02:38.572Z,96.20
2018-12-27T02:05:19.151Z,96.10
2018-12-27T02:08:00.047Z,96.20
2018-12-27T02:10:40.560Z,95.80
2018-12-27T02:13:21.536Z,95.70
2018-12-27T02:16:02.449Z,95.50
2018-12-27T02:18:43.477Z,95.50
2018-12-27T02:21:24.370Z,95.30
2018-12-27T02:24:05.217Z,95.70
2018-12-27T02:26:45.785Z,95.90
2018-12-27T02:29:26.785Z,95.40
2018-12-27T02:32:07.337Z,95.50
2018-12-27T02:34:48.008Z,95.60
2018-12-27T02:37:28.566Z,96.10
2018-12-27T02:40:09.307Z,95.90
2018-12-27T02:42:49.916Z,95.90
2018-12-27T02:45:30.738Z,96.00
2018-12-27T02:48:11.714Z,96.20
2018-12-27T02:50:52.325Z,95.80
2018-12-27T02:53:32.889Z,95.60
2018-12-27T02:56:13.385Z,95.60
2018-12-27T02:58:54.207Z,95.60
2018-12-27T03:01:35.010Z,95.50
2018-12-27T03:04:15.459Z,95.60
2018-12-27T03:06:56.324Z,95.90
2018-12-27T03:09:37.122Z,96.10
2018-12-27T03:12:17.629Z,95.90
2018-12-27T03:14:58.535Z,95.80
2018-12-27T03:17:39.695Z,96.20
2018-12-27T03:20:20.324Z,96.00
2018-12-27T03:23:01.008Z,95.70
2018-12-27T03:25:41.501Z,95.90
2018-12-27T03:28:22.301Z,95.90
2018-12-27T03:31:03.098Z,95.60
2018-12-27T03:36:13.919Z,95.80
2018-12-27T03:38:42.504Z,96.10
2018-12-27T03:41:11.158Z,96.10
2018-12-27T03:43:40.258Z,96.10
2018-12-27T03:46:08.893Z,96.20
2018-12-27T03:48:37.592Z,96.30
2018-12-27T03:51:06.201Z,96.50
2018-12-27T03:53:34.838Z,95.90
2018-12-27T03:56:03.448Z,95.90
2018-12-27T03:58:32.152Z,95.60
2018-12-27T04:01:00.744Z,95.20
2018-12-27T04:03:29.419Z,95.20
2018-12-27T04:05:58.098Z,95.20
2018-12-27T04:08:26.737Z,95.10
2018-12-27T04:10:55.415Z,95.20
2018-12-27T04:13:24.064Z,95.30
2018-12-27T04:15:52.636Z,94.90
2018-12-27T04:18:21.064Z,95.00
2018-12-27T04:20:49.689Z,94.80
2018-12-27T04:23:18.631Z,94.90
2018-12-27T04:25:47.510Z,94.90
2018-12-27T04:28:15.972Z,94.90
2018-12-27T04:30:45.473Z,95.10
2018-12-27T04:33:15.586Z,94.90
2018-12-27T04:35:44.625Z,95.40
2018-12-27T04:38:13.149Z,95.30
2018-12-27T04:40:41.640Z,95.30
2018-12-27T04:43:10.357Z,95.10
2018-12-27T04:45:39.060Z,95.20
2018-12-27T04:48:07.565Z,95.30
2018-12-27T04:50:36.059Z,95.20
2018-12-27T04:53:04.493Z,95.40
2018-12-27T04:55:33.006Z,95.00
2018-12-27T04:58:01.554Z,95.00
2018-12-27T05:00:30.114Z,95.40
2018-12-27T05:02:58.657Z,95.50
2018-12-27T05:05:27.136Z,95.50
2018-12-27T05:07:55.681Z,95.30
2018-12-27T05:10:24.280Z,95.00
2018-12-27T05:12:52.773Z,95.40
2018-12-27T05:15:21.304Z,95.20
2018-12-27T05:17:49.817Z,95.30
2018-12-27T05:20:18.297Z,95.50
2018-12-27T05:22:46.749Z,95.50
2018-12-27T05:25:15.191Z,95.30
2018-12-27T05:27:43.705Z,95.40
2018-12-27T05:30:12.152Z,95.10
2018-12-27T05:32:40.664Z,94.90
2018-12-27T05:35:09.281Z,95.50
2018-12-27T05:37:37.797Z,95.70
2018-12-27T05:40:07.061Z,95.60
2018-12-27T05:42:35.643Z,95.50
2018-12-27T05:45:04.525Z,95.20
2018-12-27T05:47:33.017Z,95.20
2018-12-27T05:50:01.462Z,95.20
2018-12-27T05:52:29.952Z,95.20
2018-12-27T05:54:58.444Z,94.70
2018-12-27T05:57:26.932Z,95.20
2018-12-27T05:59:55.425Z,95.50
2018-12-27T06:02:23.949Z,95.10
2018-12-27T06:04:52.501Z,94.90
2018-12-27T06:07:20.932Z,94.90
2018-12-27T06:09:49.399Z,94.30
2018-12-27T06:12:17.971Z,94.40
2018-12-27T06:14:46.415Z,94.40
2018-12-27T06:17:14.984Z,94.70
2018-12-27T06:19:43.435Z,94.80
2018-12-27T06:22:12.003Z,95.20
2018-12-27T06:24:40.441Z,95.00
2018-12-27T06:27:08.928Z,95.20
2018-12-27T06:29:37.369Z,95.00
2018-12-27T06:32:05.857Z,95.00
2018-12-27T06:34:41.124Z,95.10
2018-12-27T06:37:04.462Z,95.20
2018-12-27T06:39:33.032Z,95.00
2018-12-27T06:42:01.538Z,94.90
2018-12-27T06:44:30.130Z,95.00
2018-12-27T06:46:58.580Z,94.90
2018-12-27T06:49:27.006Z,95.00
2018-12-27T06:51:55.544Z,94.90
2018-12-27T06:54:24.249Z,94.90
2018-12-27T06:56:52.781Z,94.90
2018-12-27T06:59:21.227Z,95.30
2018-12-27T07:01:49.721Z,95.60
2018-12-27T07:04:18.201Z,96.30
2018-12-27T07:06:46.641Z,96.00
2018-12-27T07:09:15.128Z,96.30
2018-12-27T07:11:43.702Z,96.00
2018-12-27T07:14:12.319Z,95.50
2018-12-27T07:16:40.780Z,95.40
2018-12-27T07:19:09.285Z,96.10
2018-12-27T07:21:37.811Z,96.10
2018-12-27T07:24:06.382Z,96.80
2018-12-27T07:26:34.818Z,96.20
2018-12-27T07:29:03.312Z,96.60
2018-12-27T07:31:31.798Z,96.30
2018-12-27T07:34:00.312Z,96.10
2018-12-27T07:36:28.752Z,95.90
2018-12-27T07:38:57.261Z,95.60
2018-12-27T07:41:25.728Z,95.60
2018-12-27T07:43:54.376Z,94.90
2018-12-27T07:46:22.894Z,95.50
2018-12-27T07:48:51.405Z,95.40
2018-12-27T07:51:19.902Z,95.40
2018-12-27T07:53:48.332Z,95.60
2018-12-27T07:56:17.213Z,95.30
2018-12-27T07:58:45.663Z,95.50
2018-12-27T08:01:14.157Z,95.40
2018-12-27T08:03:42.591Z,95.10
2018-12-27T08:06:11.113Z,95.10
2018-12-27T08:08:39.690Z,94.80
2018-12-27T08:11:08.174Z,94.80
2018-12-27T08:13:36.677Z,94.80
2018-12-27T08:16:05.198Z,95.10
2018-12-27T08:18:33.855Z,95.50
2018-12-27T08:21:02.357Z,95.60
2018-12-27T08:23:30.965Z,95.30
2018-12-27T08:25:59.445Z,95.20
2018-12-27T08:28:28.025Z,94.90
2018-12-27T08:30:56.481Z,94.90
2018-12-27T08:33:25.029Z,95.00
2018-12-27T08:35:53.629Z,94.90
2018-12-27T08:38:22.072Z,94.80
2018-12-27T08:40:50.665Z,95.40
2018-12-27T08:43:19.226Z,95.50
2018-12-27T08:45:47.700Z,95.10
2018-12-27T08:48:16.136Z,94.90
2018-12-27T08:50:44.631Z,95.20
2018-12-27T08:53:13.139Z,94.90
2018-12-27T08:55:41.794Z,95.00
2018-12-27T08:58:10.262Z,94.90
2018-12-27T09:00:38.831Z,94.90
2018-12-27T09:03:07.270Z,94.90
2018-12-27T09:05:35.766Z,94.60
2018-12-27T09:08:04.201Z,94.60
2018-12-27T09:10:32.986Z,94.20
2018-12-27T09:13:01.573Z,94.00
2018-12-27T09:15:30.022Z,94.60
2018-12-27T09:17:58.551Z,94.70
2018-12-27T09:20:27.049Z,94.50
2018-12-27T09:22:55.549Z,94.60
2018-12-27T09:25:24.043Z,94.60
2018-12-27T09:27:52.549Z,94.30
2018-12-27T09:30:21.001Z,94.00
2018-12-27T09:32:49.574Z,93.60
2018-12-27T09:35:18.114Z,94.10
2018-12-27T09:37:46.573Z,94.10
2018-12-27T09:40:34.469Z,94.10
2018-12-27T09:43:22.260Z,94.00
2018-12-27T09:46:10.140Z,94.60
2018-12-27T09:48:58.030Z,94.50
2018-12-27T09:51:26.540Z,94.00
2018-12-27T09:53:55.052Z,94.30
2018-12-27T09:56:42.915Z,94.40
2018-12-27T09:59:11.477Z,94.00
2018-12-27T10:01:59.356Z,94.30
2018-12-27T10:04:47.309Z,93.50
2018-12-27T10:07:35.227Z,94.00
2018-12-27T10:10:23.225Z,93.20
2018-12-27T10:13:11.186Z,93.60
2018-12-27T10:15:52.342Z,93.20
2018-12-27T10:18:20.788Z,93.30
2018-12-27T10:21:08.698Z,93.60
2018-12-27T10:23:56.593Z,93.60
2018-12-27T10:26:44.536Z,93.30
2018-12-27T10:29:32.321Z,93.30
2018-12-27T10:32:20.267Z,93.00
2018-12-27T10:35:08.168Z,93.10
2018-12-27T10:37:56.132Z,93.30
2018-12-27T10:40:43.999Z,93.30
2018-12-27T10:43:31.798Z,93.40
2018-12-27T10:46:19.722Z,93.30
2018-12-27T10:49:07.561Z,92.80
2018-12-27T10:51:55.409Z,92.50
2018-12-27T10:54:43.188Z,93.10
2018-12-27T10:57:31.200Z,93.40
2018-12-27T11:00:19.280Z,93.40
2018-12-27T11:02:59.957Z,93.40
2018-12-27T11:05:40.635Z,93.30
2018-12-27T11:08:21.275Z,92.80
2018-12-27T11:11:02.174Z,93.30
2018-12-27T11:13:42.746Z,93.30
2018-12-27T11:16:23.285Z,93.30
2018-12-27T11:19:04.415Z,93.30
2018-12-27T11:21:45.354Z,92.80
2018-12-27T11:24:25.700Z,92.80
2018-12-27T11:27:06.409Z,93.00
2018-12-27T11:29:47.346Z,92.80
2018-12-27T11:32:27.815Z,92.90
2018-12-27T11:35:08.766Z,92.50
2018-12-27T11:37:50.083Z,92.80
2018-12-27T11:40:30.787Z,93.30
2018-12-27T11:43:11.891Z,93.30
2018-12-27T11:45:52.501Z,92.80
2018-12-27T11:48:33.015Z,92.60
2018-12-27T11:51:13.407Z,92.60
2018-12-27T11:53:54.149Z,92.30
2018-12-27T11:56:35.032Z,91.90
2018-12-27T11:59:15.950Z,91.90
2018-12-27T12:01:56.705Z,92.00
2018-12-27T12:04:37.341Z,91.50
2018-12-27T12:07:17.701Z,91.50
2018-12-27T12:09:58.339Z,91.60
2018-12-27T12:12:38.736Z,91.50
2018-12-27T12:15:19.097Z,91.90
2018-12-27T12:18:00.256Z,91.50
2018-12-27T12:20:40.994Z,91.90
2018-12-27T12:23:09.504Z,91.50
2018-12-27T12:25:57.353Z,91.20
2018-12-27T12:28:45.195Z,91.60
2018-12-27T12:31:33.002Z,91.90
2018-12-27T12:34:20.872Z,91.60
2018-12-27T12:37:13.937Z,92.10
2018-12-27T12:39:58.329Z,91.70
2018-12-27T12:42:46.096Z,91.50
2018-12-27T12:45:34.038Z,91.60
2018-12-27T12:48:21.823Z,91.50
2018-12-27T12:51:09.695Z,91.10
2018-12-27T12:53:57.545Z,91.30
2018-12-27T12:56:45.457Z,91.20
2018-12-27T12:59:33.301Z,91.20
2018-12-27T13:02:21.169Z,91.40
2018-12-27T13:05:09.015Z,91.60
2018-12-27T13:07:49.845Z,91.30
2018-12-27T13:10:30.374Z,91.30
2018-12-27T13:13:11.419Z,91.60
2018-12-27T13:15:51.918Z,91.10
2018-12-27T13:18:32.538Z,91.20
2018-12-27T13:21:13.596Z,91.40
2018-12-27T13:23:54.214Z,91.30
2018-12-27T13:26:35.055Z,91.50
2018-12-27T13:29:15.553Z,91.60
2018-12-27T13:31:56.261Z,91.40
2018-12-27T13:34:37.010Z,91.60
2018-12-27T13:37:17.683Z,91.40
2018-12-27T13:39:58.626Z,91.40
2018-12-27T13:42:39.134Z,91.20
2018-12-27T13:45:19.707Z,91.60
2018-12-27T13:48:00.521Z,91.70
2018-12-27T13:50:41.056Z,91.60
2018-12-27T13:53:21.873Z,91.90
2018-12-27T13:56:02.611Z,92.00
2018-12-27T13:58:43.228Z,91.90
2018-12-27T14:01:23.466Z,92.00
2018-12-27T14:04:04.430Z,92.10
2018-12-27T14:06:45.089Z,92.10
2018-12-27T14:09:25.817Z,92.80
2018-12-27T14:12:06.853Z,92.70
2018-12-27T14:14:47.576Z,92.50
2018-12-27T14:17:28.482Z,92.50
2018-12-27T14:20:09.450Z,93.10
2018-12-27T14:22:50.547Z,92.90
2018-12-27T14:25:31.483Z,92.80
2018-12-27T14:28:12.359Z,92.90
2018-12-27T14:30:52.909Z,92.80
2018-12-27T14:33:33.535Z,93.10
2018-12-27T14:36:14.602Z,93.00
2018-12-27T14:38:55.247Z,93.30
2018-12-27T14:41:35.891Z,93.10
2018-12-27T14:44:16.652Z,93.00
2018-12-27T14:46:57.401Z,93.40
2018-12-27T14:49:38.256Z,93.40
2018-12-27T14:52:19.278Z,93.30
2018-12-27T14:55:00.190Z,93.60
2018-12-27T14:57:40.713Z,93.40
2018-12-27T15:00:21.467Z,93.40
2018-12-27T15:03:02.309Z,93.40
2018-12-27T15:05:43.134Z,93.70
2018-12-27T15:08:23.654Z,93.30
2018-12-27T15:11:04.039Z,93.30
2018-12-27T15:13:44.895Z,93.60
2018-12-27T15:16:25.625Z,93.30
2018-12-27T15:19:06.158Z,93.40
2018-12-27T15:21:47.153Z,93.30
2018-12-27T15:24:28.073Z,93.30
2018-12-27T15:27:09.008Z,93.40
2018-12-27T15:29:50.048Z,93.60
2018-12-27T15:32:30.642Z,93.70
2018-12-27T15:35:11.784Z,93.70
2018-12-27T15:37:52.442Z,93.70
2018-12-27T15:40:33.287Z,93.70
2018-12-27T15:43:14.585Z,93.30
2018-12-27T15:45:43.237Z,93.30
2018-12-27T15:48:11.736Z,93.30
2018-12-27T15:50:59.692Z,93.30
2018-12-27T15:53:47.665Z,93.30
2018-12-27T15:56:35.539Z,93.30
2018-12-27T15:59:23.469Z,93.90
2018-12-27T16:02:11.342Z,94.00
2018-12-27T16:04:52.196Z,93.90
2018-12-27T16:07:33.333Z,94.10
2018-12-27T16:10:14.575Z,93.50
2018-12-27T16:12:55.014Z,93.90
2018-12-27T16:15:35.693Z,94.00
2018-12-27T16:18:16.436Z,93.80
2018-12-27T16:20:57.670Z,94.00
2018-12-27T16:23:38.386Z,93.80
2018-12-27T16:26:19.084Z,94.00
2018-12-27T16:28:47.679Z,93.70
2018-12-27T16:31:35.563Z,93.50
2018-12-27T16:34:23.480Z,93.70
2018-12-27T16:37:11.408Z,93.50
2018-12-27T16:40:01.575Z,93.50
2018-12-27T16:42:49.575Z,93.50
2018-12-27T16:45:37.365Z,93.70
2018-12-27T16:48:25.442Z,93.80
2018-12-27T16:51:13.429Z,93.70
2018-12-27T16:54:01.356Z,93.80
2018-12-27T16:56:49.128Z,93.60
2018-12-27T16:59:36.970Z,93.80
2018-12-27T17:02:25.063Z,94.10
2018-12-27T17:05:13.217Z,94.10
2018-12-27T17:08:01.149Z,93.80
2018-12-27T17:10:42.120Z,93.90
2018-12-27T17:13:22.686Z,93.80
2018-12-27T17:16:03.648Z,93.60
2018-12-27T17:18:44.577Z,93.30
2018-12-27T17:21:25.593Z,93.60
2018-12-27T17:24:06.477Z,93.70
2018-12-27T17:26:47.101Z,93.80
2018-12-27T17:29:27.868Z,94.00
2018-12-27T17:32:09.167Z,93.70
2018-12-27T17:34:50.422Z,93.70
2018-12-27T17:37:30.961Z,93.70
2018-12-27T17:40:11.742Z,93.70
2018-12-27T17:42:52.363Z,93.80
2018-12-27T17:45:32.997Z,93.70
2018-12-27T17:48:13.449Z,93.70
2018-12-27T17:50:54.286Z,93.40
2018-12-27T17:53:34.963Z,93.30
2018-12-27T17:56:15.499Z,93.30
2018-12-27T17:58:44.038Z,93.30
2018-12-27T18:01:31.969Z,93.30
2018-12-27T18:04:19.819Z,93.50
2018-12-27T18:06:48.491Z,93.80
2018-12-27T18:09:36.288Z,93.90
2018-12-27T18:12:24.172Z,93.90
2018-12-27T18:15:12.006Z,93.90
2018-12-27T18:17:40.593Z,93.80
2018-12-27T18:20:28.418Z,93.90
2018-12-27T18:23:16.278Z,93.90
2018-12-27T18:26:04.238Z,93.70
2018-12-27T18:28:52.012Z,93.60
2018-12-27T18:31:39.968Z,93.80
2018-12-27T18:34:27.769Z,93.70
2018-12-27T18:37:15.721Z,94.00
2018-12-27T18:40:03.954Z,94.10
2018-12-27T18:42:51.985Z,93.80
2018-12-27T18:45:39.919Z,93.60
2018-12-27T18:48:27.888Z,93.80
2018-12-27T18:51:15.746Z,93.90
2018-12-27T18:54:03.783Z,94.00
2018-12-27T18:56:51.705Z,94.50
2018-12-27T18:59:39.599Z,94.40
2018-12-27T19:02:27.582Z,94.30
2018-12-27T19:05:08.321Z,93.80
2018-12-27T19:07:49.493Z,94.40
2018-12-27T19:10:30.882Z,94.30
2018-12-27T19:13:11.690Z,94.70
2018-12-27T19:15:52.632Z,93.90
2018-12-27T19:18:33.618Z,94.10
2018-12-27T19:21:14.211Z,94.10
2018-12-27T19:23:54.861Z,94.20
2018-12-27T19:26:35.747Z,94.10
2018-12-27T19:29:16.351Z,94.50
2018-12-27T19:31:56.776Z,94.30
2018-12-27T19:34:37.521Z,94.10
2018-12-27T19:37:18.171Z,94.10
2018-12-27T19:39:58.693Z,94.10
2018-12-27T19:42:39.098Z,93.80
2018-12-27T19:45:20.033Z,93.70
2018-12-27T19:48:00.592Z,94.30
2018-12-27T19:50:41.171Z,94.30
2018-12-27T19:53:21.992Z,94.00
2018-12-27T19:56:02.415Z,94.00
2018-12-27T19:58:42.930Z,94.10
2018-12-27T20:01:23.750Z,94.50
2018-12-27T20:04:04.840Z,93.90
2018-12-27T20:06:45.545Z,94.40
2018-12-27T20:09:26.285Z,94.40
2018-12-27T20:12:07.311Z,93.80
2018-12-27T20:14:47.883Z,94.20
2018-12-27T20:17:28.806Z,94.00
2018-12-27T20:20:09.625Z,93.80
2018-12-27T20:22:38.236Z,94.00
2018-12-27T20:25:26.135Z,94.20
2018-12-27T20:28:13.980Z,94.20
2018-12-27T20:31:02.019Z,94.10
2018-12-27T20:33:50.058Z,94.00
2018-12-27T20:36:38.068Z,93.80
2018-12-27T20:39:25.949Z,93.80
2018-12-27T20:42:13.945Z,94.20
2018-12-27T20:45:01.737Z,94.20
2018-12-27T20:47:49.779Z,94.10
2018-12-27T20:50:37.657Z,94.00
2018-12-27T20:53:25.560Z,94.10
2018-12-27T20:56:13.560Z,94.30
2018-12-27T20:59:01.618Z,94.30
2018-12-27T21:01:49.518Z,94.30
2018-12-27T21:04:30.757Z,94.20
2018-12-27T21:07:11.649Z,94.00
2018-12-27T21:09:52.596Z,94.20
2018-12-27T21:12:34.190Z,94.30
2018-12-27T21:15:14.801Z,94.00
2018-12-27T21:17:55.241Z,94.20
2018-12-27T21:20:36.201Z,94.50
2018-12-27T21:23:16.606Z,94.50
2018-12-27T21:25:57.261Z,94.60
2018-12-27T21:28:38.418Z,94.70
2018-12-27T21:31:19.135Z,94.50
2018-12-27T21:33:59.855Z,94.70
2018-12-27T21:36:40.842Z,95.10
2018-12-27T21:39:21.312Z,95.40
2018-12-27T21:42:02.440Z,95.10
2018-12-27T21:44:31.082Z,95.10
2018-12-27T21:47:18.954Z,95.10
2018-12-27T21:50:06.845Z,94.60
2018-12-27T21:52:35.379Z,94.80
2018-12-27T21:55:04.114Z,94.70
2018-12-27T21:57:32.573Z,94.60
2018-12-27T22:00:01.183Z,94.50
2018-12-27T22:02:29.728Z,94.80
2018-12-27T22:04:58.351Z,94.60
2018-12-27T22:07:27.251Z,94.30
2018-12-27T22:09:55.750Z,94.30
2018-12-27T22:12:24.317Z,94.60
2018-12-27T22:14:52.858Z,94.30
2018-12-27T22:17:21.410Z,94.50
2018-12-27T22:19:49.867Z,94.60
2018-12-27T22:22:18.384Z,94.80
2018-12-27T22:24:46.840Z,94.70
2018-12-27T22:27:15.341Z,94.70
2018-12-27T22:29:43.870Z,94.70
2018-12-27T22:32:12.423Z,94.90
2018-12-27T22:34:42.554Z,95.20
2018-12-27T22:37:11.088Z,95.10
2018-12-27T22:39:39.609Z,95.10
2018-12-27T22:42:08.197Z,95.10
2018-12-27T22:44:36.673Z,95.10
2018-12-27T22:47:05.141Z,95.20
2018-12-27T22:49:33.780Z,95.40
2018-12-27T22:52:02.307Z,95.20
2018-12-27T22:54:30.881Z,95.00
2018-12-27T22:56:59.408Z,94.70
2018-12-27T22:59:27.988Z,95.10
2018-12-27T23:01:56.537Z,95.20
2018-12-27T23:04:25.029Z,95.40
2018-12-27T23:06:53.468Z,95.70
2018-12-27T23:09:22.824Z,95.60
2018-12-27T23:11:51.405Z,95.20
2018-12-27T23:14:19.852Z,95.20
2018-12-27T23:16:48.456Z,95.00
2018-12-27T23:19:16.954Z,95.00
2018-12-27T23:21:45.450Z,94.90
2018-12-27T23:24:13.890Z,94.70
2018-12-27T23:26:42.383Z,94.80
2018-12-27T23:29:10.900Z,95.20
2018-12-27T23:31:39.335Z,95.40
2018-12-27T23:34:07.809Z,95.40
2018-12-27T23:36:36.309Z,95.20
2018-12-27T23:39:07.281Z,95.30
2018-12-27T23:41:35.773Z,95.20
2018-12-27T23:44:04.269Z,95.30
2018-12-27T23:46:32.763Z,95.20
2018-12-27T23:49:01.216Z,95.40
2018-12-27T23:51:29.697Z,95.20
2018-12-27T23:53:58.272Z,95.30
2018-12-27T23:56:26.796Z,95.50
2018-12-27T23:58:55.249Z,95.60
